Alameda, California
Current Conditions -  °F | °C
As of 4:53 PM on Friday 31 Oct 2014 (Local Time) from KOAK Reporting Station
Overcast Overcast  
Wind Chill: 15°   Ceiling: 9000
Heat Index: 15°   Visibility: 10mi
Dew Point: 12°   Wind: 3mph
Humidity: 81%   Direction: 270°W
Pressure: 29.79"   Gusts: NA
Location:  37.77°N, 122.24°W
Report Text: KOAK 312353Z 27003KT 10SM FEW017 SCT024 BKN090 OVC160 15/12 A2979 RMK AO2 SLP087 60014 T01500117 10167 20144 58010
Loading
Personal Weather Stations






























Interactive Weather Map New forecast layout! Learn more

10-Day Weather Forecast

Advertisements
Track Severe Weather on mobile